Time;durP1;ratioP1;P1;durP2;ratioP2;P2;SDS_P1;SDS_P2;PMS_P1;PMS_P2;Temp;Humidity;BMP_temperature;BMP_pressure;BME280_temperature;BME280_humidity;BME280_pressure;Samples;Min_cycle;Max_cycle;Signal;HPM_P1;HPM_P2
2021/10/16 00:02:04;;;;;;;83.07;30.80;;;;;;;9.63;100.00;101451.50;4987558;28;20839;-88
2021/10/16 00:04:41;;;;;;;69.18;25.88;;;;;;;9.48;100.00;101423.50;5019867;28;20127;-88
2021/10/16 00:07:07;;;;;;;52.63;22.42;;;;;;;9.61;100.00;101444.59;5025355;28;20390;-85
2021/10/16 00:09:37;;;;;;;41.08;16.65;;;;;;;9.68;100.00;101446.53;5013463;28;20034;-88
2021/10/16 00:12:03;;;;;;;38.03;14.45;;;;;;;9.73;100.00;101437.16;4988975;28;20466;-86
2021/10/16 00:14:34;;;;;;;41.30;14.63;;;;;;;9.78;100.00;101437.53;5013869;28;20037;-88
2021/10/16 00:17:01;;;;;;;44.00;16.58;;;;;;;9.87;100.00;101436.59;5013154;28;20120;-88
2021/10/16 00:19:38;;;;;;;26.50;9.80;;;;;;;9.94;100.00;101434.13;5025331;28;20492;-88
2021/10/16 00:22:03;;;;;;;36.22;17.92;;;;;;;9.87;100.00;101410.59;4987488;28;20053;-86
2021/10/16 00:24:30;;;;;;;32.85;10.63;;;;;;;9.96;100.00;101432.16;5017837;28;20487;-87
2021/10/16 00:26:57;;;;;;;42.40;16.80;;;;;;;9.92;100.00;101420.84;5016120;28;20038;-89
2021/10/16 00:29:23;;;;;;;24.52;10.15;;;;;;;9.87;100.00;101429.41;4991344;28;20391;-87
2021/10/16 00:31:48;;;;;;;19.40;8.75;;;;;;;9.83;100.00;101424.47;4991218;28;20033;-87
2021/10/16 00:34:15;;;;;;;15.10;7.90;;;;;;;9.70;100.00;101411.44;4999230;28;20034;-87
2021/10/16 00:36:42;;;;;;;21.85;9.38;;;;;;;9.74;100.00;101417.34;5020403;28;20038;-86
2021/10/16 00:39:08;;;;;;;19.38;7.97;;;;;;;9.73;100.00;101421.88;5005248;28;20033;-87
2021/10/16 00:41:34;;;;;;;24.75;9.45;;;;;;;9.71;100.00;101423.84;5028755;28;20395;-90
2021/10/16 00:44:24;;;;;;;21.70;8.80;;;;;;;9.71;100.00;101413.13;5003751;28;20038;-92
2021/10/16 00:46:58;;;;;;;22.30;8.25;;;;;;;9.68;100.00;101413.44;5007383;28;20055;-88
2021/10/16 00:49:25;;;;;;;20.73;8.38;;;;;;;9.74;100.00;101409.28;4986162;28;20096;-89
2021/10/16 00:51:53;;;;;;;16.15;8.93;;;;;;;9.77;100.00;101409.00;5029684;28;20363;-87
2021/10/16 00:54:22;;;;;;;20.15;7.53;;;;;;;9.67;100.00;101393.78;4990909;28;20037;-89
2021/10/16 00:56:52;;;;;;;21.23;8.95;;;;;;;9.71;100.00;101406.91;5004207;28;20467;-89
2021/10/16 00:59:20;;;;;;;20.58;7.65;;;;;;;9.71;100.00;101396.16;5015857;28;20061;-89
2021/10/16 01:01:47;;;;;;;22.25;8.82;;;;;;;9.55;100.00;101378.94;5022725;28;20037;-88
2021/10/16 01:04:17;;;;;;;13.88;7.65;;;;;;;9.54;100.00;101379.06;5009412;28;20044;-88
2021/10/16 01:06:43;;;;;;;14.95;6.85;;;;;;;9.56;100.00;101394.03;5022333;28;20490;-88
2021/10/16 01:09:10;;;;;;;17.52;7.65;;;;;;;9.50;100.00;101394.66;5017807;28;20033;-92
2021/10/16 01:11:56;;;;;;;13.25;7.43;;;;;;;9.33;100.00;101376.69;5000348;28;20394;-90
2021/10/16 01:14:25;;;;;;;13.93;7.63;;;;;;;9.28;100.00;101382.50;4997074;28;20411;-87
2021/10/16 01:16:52;;;;;;;15.85;7.10;;;;;;;9.18;100.00;101374.53;5005513;28;20087;-91
2021/10/16 01:19:22;;;;;;;16.15;6.82;;;;;;;9.06;100.00;101380.28;5009544;28;20095;-89
2021/10/16 01:21:55;;;;;;;18.02;7.40;;;;;;;8.94;100.00;101379.63;5001959;28;20479;-87
2021/10/16 01:24:33;;;;;;;19.98;7.93;;;;;;;8.80;100.00;101378.28;5038037;28;20084;-86
2021/10/16 01:26:59;;;;;;;17.48;7.00;;;;;;;8.65;100.00;101366.38;5017942;28;20033;-89
2021/10/16 01:29:28;;;;;;;15.82;7.05;;;;;;;8.46;100.00;101348.53;5009298;28;20037;-87
2021/10/16 01:32:01;;;;;;;14.38;7.57;;;;;;;8.48;100.00;101368.84;4995578;28;20046;-88
2021/10/16 01:34:27;;;;;;;19.98;6.75;;;;;;;8.32;100.00;101364.06;5011797;28;20034;-86
2021/10/16 01:36:56;;;;;;;17.23;7.07;;;;;;;8.17;100.00;101362.00;4990303;28;20034;-88
2021/10/16 01:39:22;;;;;;;14.25;6.60;;;;;;;8.11;100.00;101352.72;5011449;28;20033;-85
2021/10/16 01:41:48;;;;;;;17.88;7.35;;;;;;;8.07;100.00;101344.13;4985288;28;20049;-88
2021/10/16 01:44:14;;;;;;;16.63;8.30;;;;;;;8.13;100.00;101345.38;5007161;28;20038;-86
2021/10/16 01:46:45;;;;;;;18.20;7.25;;;;;;;8.13;100.00;101351.59;5007844;28;20121;-91
2021/10/16 01:49:14;;;;;;;19.08;8.15;;;;;;;8.10;100.00;101341.16;5008149;28;20053;-85
2021/10/16 01:51:40;;;;;;;17.65;5.63;;;;;;;7.96;100.00;101327.38;5006694;28;20029;-90
2021/10/16 01:54:09;;;;;;;16.95;6.88;;;;;;;7.90;100.00;101331.47;5021930;28;20064;-88
2021/10/16 01:56:41;;;;;;;13.70;6.05;;;;;;;7.78;100.00;101320.09;4997268;28;20479;-86
2021/10/16 01:59:21;;;;;;;12.63;5.90;;;;;;;7.67;100.00;101321.13;4999064;28;20037;-87
2021/10/16 02:01:47;;;;;;;18.75;6.63;;;;;;;7.57;100.00;101311.38;5029009;28;20463;-85
2021/10/16 02:04:13;;;;;;;18.83;6.75;;;;;;;7.63;100.00;101317.00;5010214;28;20029;-90
2021/10/16 02:06:42;;;;;;;15.20;5.85;;;;;;;7.59;100.00;101312.09;5020931;28;20538;-88
2021/10/16 02:09:10;;;;;;;12.75;6.20;;;;;;;7.57;100.00;101314.06;4978730;28;20152;-89
2021/10/16 02:11:38;;;;;;;13.57;5.20;;;;;;;7.30;100.00;101283.53;5017410;28;20490;-87
2021/10/16 02:14:10;;;;;;;15.13;6.13;;;;;;;7.32;100.00;101297.59;4998885;28;20033;-87
2021/10/16 02:16:37;;;;;;;11.45;5.65;;;;;;;7.29;100.00;101302.41;5009989;28;20064;-87
2021/10/16 02:19:03;;;;;;;13.15;5.60;;;;;;;7.29;100.00;101305.06;5044924;28;20543;-87
2021/10/16 02:21:29;;;;;;;10.73;5.57;;;;;;;7.23;100.00;101301.97;4984899;28;20128;-88
2021/10/16 02:23:56;;;;;;;15.50;5.72;;;;;;;7.13;100.00;101292.25;5013327;28;20140;-88
2021/10/16 02:26:27;;;;;;;12.10;5.93;;;;;;;7.04;100.00;101285.94;5002238;28;20508;-89
2021/10/16 02:29:08;;;;;;;15.27;6.07;;;;;;;7.03;100.00;101287.75;5024175;28;20033;-89
2021/10/16 02:31:36;;;;;;;16.70;6.45;;;;;;;6.93;100.00;101286.03;5008310;28;20099;-90
2021/10/16 02:34:01;;;;;;;13.90;6.03;;;;;;;6.91;100.00;101282.69;4998189;28;20041;-87
2021/10/16 02:36:28;;;;;;;15.25;6.47;;;;;;;6.82;100.00;101263.81;5002024;28;20368;-88
2021/10/16 02:38:54;;;;;;;16.65;6.90;;;;;;;6.92;100.00;101279.03;5060219;28;20696;-91
2021/10/16 02:41:23;;;;;;;12.85;5.60;;;;;;;6.78;100.00;101259.72;5018546;28;20030;-88
2021/10/16 02:43:49;;;;;;;11.82;4.95;;;;;;;6.83;100.00;101262.00;5002310;28;20502;-88
2021/10/16 02:46:16;;;;;;;17.00;6.15;;;;;;;6.75;100.00;101257.34;5020570;28;20068;-89
2021/10/16 02:48:41;;;;;;;13.48;5.65;;;;;;;6.73;100.00;101261.97;5004458;28;20041;-87
2021/10/16 02:51:07;;;;;;;14.23;6.00;;;;;;;6.73;100.00;101256.63;5000161;28;20088;-86
2021/10/16 02:53:35;;;;;;;16.08;5.50;;;;;;;6.57;100.00;101240.28;5006977;28;20055;-87
2021/10/16 02:56:02;;;;;;;14.45;5.97;;;;;;;6.58;100.00;101250.81;5005177;28;20057;-89
2021/10/16 02:58:30;;;;;;;11.85;5.68;;;;;;;6.42;100.00;101231.81;5005599;28;20148;-88
2021/10/16 03:00:56;;;;;;;17.42;5.78;;;;;;;6.47;100.00;101224.22;4996262;28;20037;-87
2021/10/16 03:03:42;;;;;;;14.82;5.88;;;;;;;6.58;100.00;101248.16;4998110;28;20099;-90
2021/10/16 03:06:08;;;;;;;14.82;6.10;;;;;;;6.54;100.00;101236.06;5003018;28;20063;-88
2021/10/16 03:08:36;;;;;;;12.57;4.95;;;;;;;6.58;100.00;101226.78;5008538;28;20041;-88
2021/10/16 03:11:02;;;;;;;10.82;5.10;;;;;;;6.60;100.00;101235.50;5018855;28;20034;-86
2021/10/16 03:13:35;;;;;;;9.63;4.88;;;;;;;6.49;100.00;101240.97;5022213;28;20033;-88
2021/10/16 03:16:02;;;;;;;10.32;4.05;;;;;;;6.27;100.00;101230.50;5021553;28;20049;-89
2021/10/16 03:18:30;;;;;;;11.70;4.38;;;;;;;6.26;100.00;101239.50;5026111;28;20045;-85
2021/10/16 03:20:56;;;;;;;10.07;4.72;;;;;;;6.23;100.00;101232.63;5013778;28;20041;-87
2021/10/16 03:23:26;;;;;;;15.50;5.15;;;;;;;6.16;100.00;101229.63;4991066;28;20029;-88
2021/10/16 03:25:53;;;;;;;11.38;5.90;;;;;;;6.13;100.00;101219.22;5024195;28;20037;-87
2021/10/16 03:28:22;;;;;;;12.50;5.63;;;;;;;6.21;100.00;101217.72;5013101;28;20045;-86
2021/10/16 03:30:48;;;;;;;13.38;5.53;;;;;;;6.39;100.00;101226.75;5014353;28;20042;-87
2021/10/16 03:33:14;;;;;;;16.60;6.88;;;;;;;6.47;100.00;101236.75;4995924;28;20048;-86
2021/10/16 03:35:40;;;;;;;20.67;7.20;;;;;;;6.50;100.00;101231.13;5023343;28;20040;-87
2021/10/16 03:38:06;;;;;;;16.50;5.93;;;;;;;6.47;100.00;101215.38;4997408;28;20135;-87
2021/10/16 03:40:32;;;;;;;13.52;6.10;;;;;;;6.39;100.00;101221.41;5011822;28;20485;-87
2021/10/16 03:43:03;;;;;;;16.08;6.38;;;;;;;6.39;100.00;101211.56;4992874;28;20061;-88
2021/10/16 03:45:29;;;;;;;14.63;6.22;;;;;;;6.39;100.00;101218.75;5018905;28;20080;-88
2021/10/16 03:47:55;;;;;;;16.65;6.18;;;;;;;6.28;100.00;101195.66;5035662;28;20156;-86
2021/10/16 03:50:20;;;;;;;17.70;6.97;;;;;;;6.42;100.00;101206.94;5003539;28;20037;-87
2021/10/16 03:52:46;;;;;;;17.30;6.75;;;;;;;6.40;100.00;101199.03;5019827;28;21040;-89
2021/10/16 03:55:13;;;;;;;14.40;5.25;;;;;;;6.49;100.00;101206.25;5011251;28;20436;-89
2021/10/16 03:57:42;;;;;;;15.95;6.70;;;;;;;6.44;100.00;101188.94;5025996;28;20049;-86
2021/10/16 04:00:16;;;;;;;13.05;5.00;;;;;;;6.33;100.00;101171.22;5012278;28;20095;-87
2021/10/16 04:02:46;;;;;;;13.50;5.25;;;;;;;6.47;100.00;101194.84;5019173;28;20030;-86
2021/10/16 04:05:12;;;;;;;14.57;5.40;;;;;;;6.50;100.00;101199.91;4992923;28;22310;-87
2021/10/16 04:07:37;;;;;;;16.42;5.55;;;;;;;6.45;100.00;101190.63;4996659;28;20053;-89
2021/10/16 04:10:08;;;;;;;19.17;6.90;;;;;;;6.51;100.00;101204.28;4987301;28;20129;-88
2021/10/16 04:12:34;;;;;;;16.98;6.00;;;;;;;6.55;100.00;101188.81;5000901;28;20040;-88
2021/10/16 04:14:59;;;;;;;17.52;5.90;;;;;;;6.54;100.00;101190.66;5003790;28;20066;-88
2021/10/16 04:17:25;;;;;;;18.73;5.72;;;;;;;6.53;100.00;101188.94;5025766;28;20021;-86
2021/10/16 04:19:54;;;;;;;14.65;6.35;;;;;;;6.54;100.00;101177.28;4995969;28;20037;-86
2021/10/16 04:22:20;;;;;;;15.75;5.43;;;;;;;6.59;100.00;101176.88;5011162;28;20075;-85
2021/10/16 04:24:48;;;;;;;16.10;6.68;;;;;;;6.72;100.00;101188.13;5008569;28;20426;-89
2021/10/16 04:27:13;;;;;;;17.02;6.55;;;;;;;6.65;100.00;101176.31;4982821;28;20038;-86
2021/10/16 04:29:39;;;;;;;19.92;6.80;;;;;;;6.70;100.00;101189.25;5006577;28;20063;-86
2021/10/16 04:32:08;;;;;;;18.05;5.75;;;;;;;6.70;100.00;101190.09;5009450;28;20041;-89
2021/10/16 04:34:41;;;;;;;14.27;5.40;;;;;;;6.63;100.00;101178.28;5042150;28;20034;-87
2021/10/16 04:37:06;;;;;;;16.70;6.25;;;;;;;6.78;100.00;101189.41;5003867;28;20034;-88
2021/10/16 04:39:32;;;;;;;13.90;5.90;;;;;;;6.87;100.00;101185.88;4993088;28;20475;-90
2021/10/16 04:41:58;;;;;;;15.23;5.78;;;;;;;6.87;100.00;101169.81;5027745;28;20034;-88
2021/10/16 04:44:27;;;;;;;12.18;5.00;;;;;;;6.85;100.00;101166.44;5021882;28;20037;-88
2021/10/16 04:46:53;;;;;;;14.32;6.35;;;;;;;6.85;100.00;101161.09;5001834;28;20132;-88
2021/10/16 04:49:25;;;;;;;12.55;5.40;;;;;;;6.79;100.00;101146.47;5018706;28;20537;-88
2021/10/16 04:51:50;;;;;;;17.13;5.10;;;;;;;6.82;100.00;101146.19;5002743;28;20026;-88
2021/10/16 04:54:21;;;;;;;15.90;5.90;;;;;;;6.85;100.00;101138.88;4983916;28;20116;-86
2021/10/16 04:56:47;;;;;;;16.65;5.50;;;;;;;6.96;100.00;101144.94;5031160;28;20124;-90
2021/10/16 04:59:13;;;;;;;15.18;6.22;;;;;;;7.01;100.00;101139.13;5011656;28;20041;-85
2021/10/16 05:01:40;;;;;;;16.45;6.13;;;;;;;7.03;100.00;101140.69;4994503;28;20087;-88
2021/10/16 05:04:08;;;;;;;18.75;5.93;;;;;;;7.09;100.00;101147.28;4991617;28;20072;-88
2021/10/16 05:06:38;;;;;;;15.75;6.55;;;;;;;7.17;100.00;101134.06;5022545;28;20187;-88
2021/10/16 05:09:06;;;;;;;21.45;6.10;;;;;;;7.24;100.00;101134.31;5005074;28;20052;-87
2021/10/16 05:11:32;;;;;;;15.57;6.35;;;;;;;7.24;100.00;101129.78;5007244;28;20030;-85
2021/10/16 05:13:59;;;;;;;14.38;6.25;;;;;;;7.25;100.00;101130.63;5004816;28;20107;-88
2021/10/16 05:16:25;;;;;;;20.35;6.75;;;;;;;7.26;100.00;101130.50;4996206;28;20029;-88
2021/10/16 05:18:50;;;;;;;16.52;6.80;;;;;;;7.23;100.00;101113.91;4998415;28;20364;-88
2021/10/16 05:21:19;;;;;;;19.33;7.22;;;;;;;7.37;100.00;101131.31;5027349;28;20045;-87
2021/10/16 05:23:46;;;;;;;20.88;7.13;;;;;;;7.34;100.00;101116.41;5047767;28;20034;-88
2021/10/16 05:26:11;;;;;;;17.38;6.55;;;;;;;7.44;100.00;101130.59;4997194;28;20498;-87
2021/10/16 05:28:37;;;;;;;15.90;6.47;;;;;;;7.42;100.00;101105.81;5004847;28;20033;-88
2021/10/16 05:31:05;;;;;;;19.67;5.82;;;;;;;7.47;100.00;101108.06;4991587;28;20406;-89
2021/10/16 05:33:32;;;;;;;12.23;6.00;;;;;;;7.65;100.00;101121.50;5024813;28;20029;-90
2021/10/16 05:35:58;;;;;;;15.52;6.28;;;;;;;7.69;100.00;101123.72;5025655;28;20041;-89
2021/10/16 05:38:23;;;;;;;19.98;7.00;;;;;;;7.76;100.00;101131.19;5027551;28;20030;-87
2021/10/16 05:40:54;;;;;;;16.75;6.25;;;;;;;7.76;100.00;101113.28;4996368;28;20041;-88
2021/10/16 05:43:20;;;;;;;13.55;5.72;;;;;;;7.92;100.00;101124.16;5000333;28;20034;-87
2021/10/16 05:45:50;;;;;;;15.50;5.78;;;;;;;7.96;100.00;101121.19;4988399;28;20056;-89
2021/10/16 05:48:21;;;;;;;14.07;6.43;;;;;;;7.84;100.00;101091.94;4989292;28;20394;-88
2021/10/16 05:50:46;;;;;;;12.13;6.40;;;;;;;7.96;100.00;101105.13;5006012;28;20045;-86
2021/10/16 05:53:14;;;;;;;15.85;5.18;;;;;;;8.14;100.00;101122.91;4988350;28;20042;-86
2021/10/16 05:55:40;;;;;;;15.98;6.07;;;;;;;8.15;100.00;101113.06;4986877;28;20038;-88
2021/10/16 05:58:08;;;;;;;12.15;5.38;;;;;;;8.06;100.00;101089.84;5034229;28;20036;-87
2021/10/16 06:00:38;;;;;;;14.63;5.90;;;;;;;8.20;100.00;101118.78;5019162;28;20033;-87
2021/10/16 06:03:03;;;;;;;10.07;5.55;;;;;;;8.23;100.00;101110.47;4999378;28;20074;-89
2021/10/16 06:05:29;;;;;;;11.50;5.30;;;;;;;8.24;100.00;101101.41;5004588;28;20038;-86
2021/10/16 06:07:54;;;;;;;11.00;5.35;;;;;;;8.29;100.00;101095.59;4987088;28;20806;-86
2021/10/16 06:10:20;;;;;;;15.40;5.63;;;;;;;8.34;100.00;101091.47;5021542;28;20075;-89
2021/10/16 06:12:46;;;;;;;14.10;5.72;;;;;;;8.37;100.00;101093.00;4988829;28;20041;-89
2021/10/16 06:15:13;;;;;;;12.65;5.97;;;;;;;8.38;100.00;101092.84;5010497;28;20049;-88
2021/10/16 06:17:46;;;;;;;12.32;6.03;;;;;;;8.36;100.00;101083.25;5037975;28;20029;-89
2021/10/16 06:20:15;;;;;;;15.13;6.10;;;;;;;8.32;100.00;101079.22;5014157;28;20168;-86
2021/10/16 06:22:41;;;;;;;9.15;5.40;;;;;;;8.43;100.00;101091.56;5036656;28;20041;-87
2021/10/16 06:25:08;;;;;;;14.15;5.78;;;;;;;8.39;100.00;101083.00;5019281;28;20065;-85
2021/10/16 06:27:35;;;;;;;14.00;6.53;;;;;;;8.39;100.00;101088.38;5005268;28;20116;-88
2021/10/16 06:30:01;;;;;;;9.82;5.13;;;;;;;8.19;100.00;101051.97;4988075;28;20072;-89
2021/10/16 06:32:26;;;;;;;13.52;6.05;;;;;;;8.33;100.00;101068.34;5020121;28;20044;-90
2021/10/16 06:34:53;;;;;;;13.20;5.80;;;;;;;8.45;100.00;101086.91;4984424;28;20894;-89
2021/10/16 06:37:20;;;;;;;11.93;6.03;;;;;;;8.37;100.00;101071.56;5015945;28;20621;-88
2021/10/16 06:39:46;;;;;;;17.10;6.70;;;;;;;8.42;100.00;101073.81;5034668;28;20037;-87
2021/10/16 06:42:19;;;;;;;9.07;4.05;;;;;;;8.34;100.00;101061.16;5016188;28;20060;-89
2021/10/16 06:44:46;;;;;;;15.85;6.07;;;;;;;8.26;100.00;101048.53;5008318;28;20501;-87
2021/10/16 06:47:11;;;;;;;17.10;7.22;;;;;;;8.46;100.00;101083.22;5009596;28;20025;-88
2021/10/16 06:49:37;;;;;;;14.45;5.78;;;;;;;8.42;100.00;101076.50;4991270;28;20100;-89
2021/10/16 06:52:05;;;;;;;13.80;6.13;;;;;;;8.54;100.00;101086.81;4992175;28;20026;-88
2021/10/16 06:54:31;;;;;;;16.67;6.55;;;;;;;8.59;100.00;101081.81;5001593;28;20072;-89
2021/10/16 06:57:00;;;;;;;21.52;7.90;;;;;;;8.80;100.00;101076.13;5001532;28;20037;-88
2021/10/16 06:59:25;;;;;;;17.48;6.88;;;;;;;8.82;100.00;101061.75;4991638;28;20041;-89
2021/10/16 07:01:51;;;;;;;20.73;7.65;;;;;;;9.12;100.00;101080.03;4987935;28;20038;-86
2021/10/16 07:04:17;;;;;;;23.95;7.50;;;;;;;9.45;100.00;101073.00;5002262;28;20042;-87
2021/10/16 07:06:43;;;;;;;21.33;7.75;;;;;;;9.56;100.00;101077.25;5023886;28;20037;-89
2021/10/16 07:09:09;;;;;;;15.85;6.93;;;;;;;9.54;100.00;101079.25;5013891;28;20443;-89
2021/10/16 07:11:36;;;;;;;17.08;7.78;;;;;;;9.52;100.00;101065.13;5001292;28;20091;-90
2021/10/16 07:14:04;;;;;;;24.17;9.82;;;;;;;9.62;100.00;101055.09;5006407;28;20131;-89
2021/10/16 07:16:37;;;;;;;26.83;8.70;;;;;;;9.85;100.00;101076.00;4998804;28;20091;-88
2021/10/16 07:19:04;;;;;;;23.17;8.82;;;;;;;9.99;100.00;101080.75;4992962;28;20536;-87
2021/10/16 07:21:32;;;;;;;23.35;9.63;;;;;;;10.07;100.00;101077.22;5010798;28;20041;-90
2021/10/16 07:23:58;;;;;;;27.23;9.30;;;;;;;10.22;100.00;101082.81;5016177;28;20604;-89
2021/10/16 07:26:24;;;;;;;25.23;8.05;;;;;;;10.22;100.00;101066.69;5020731;28;20087;-87
2021/10/16 07:28:50;;;;;;;25.17;10.07;;;;;;;10.32;100.00;101070.09;4996420;28;20044;-89
2021/10/16 07:31:16;;;;;;;22.52;8.05;;;;;;;10.32;100.00;101051.28;4997502;28;20041;-87
2021/10/16 07:33:42;;;;;;;26.85;8.57;;;;;;;10.36;100.00;101054.47;4993366;28;20112;-86
2021/10/16 07:36:16;;;;;;;19.85;8.23;;;;;;;10.41;100.00;101063.72;4992981;28;20124;-88
2021/10/16 07:38:44;;;;;;;25.63;10.27;;;;;;;10.44;100.00;101073.28;5027819;28;20099;-92
2021/10/16 07:41:10;;;;;;;25.20;9.63;;;;;;;10.26;100.00;101050.03;4996350;28;20108;-87
2021/10/16 07:43:36;;;;;;;28.08;9.00;;;;;;;10.33;100.00;101069.91;5041329;28;20486;-86
2021/10/16 07:46:01;;;;;;;17.75;8.07;;;;;;;10.33;100.00;101075.28;4992446;28;20080;-90
2021/10/16 07:48:27;;;;;;;21.73;8.15;;;;;;;10.24;100.00;101048.53;4996253;28;20073;-89
2021/10/16 07:50:54;;;;;;;18.73;7.20;;;;;;;10.28;100.00;101056.13;4989874;28;20391;-89
2021/10/16 07:53:19;;;;;;;17.77;8.05;;;;;;;10.43;100.00;101079.69;4995874;28;20490;-88
2021/10/16 07:55:45;;;;;;;20.70;8.52;;;;;;;10.33;100.00;101042.19;5013255;28;20037;-86
2021/10/16 07:58:11;;;;;;;25.15;8.38;;;;;;;10.51;100.00;101072.44;4994744;28;20069;-88
2021/10/16 08:00:37;;;;;;;10.02;4.63;;;;;;;10.53;100.00;101066.88;4990159;28;20658;-88
2021/10/16 08:03:07;;;;;;;15.82;7.65;;;;;;;10.58;100.00;101048.41;4995154;28;20647;-87
2021/10/16 08:05:32;;;;;;;19.60;7.80;;;;;;;10.74;100.00;101061.00;5008136;28;20056;-91
2021/10/16 08:07:58;;;;;;;20.02;7.35;;;;;;;10.80;100.00;101054.97;4997088;28;20122;-87
2021/10/16 08:10:27;;;;;;;20.38;8.05;;;;;;;10.86;100.00;101053.44;4989252;28;20030;-88
2021/10/16 08:12:52;;;;;;;19.00;7.78;;;;;;;10.91;100.00;101053.78;5023692;28;20383;-88
2021/10/16 08:15:18;;;;;;;21.50;7.50;;;;;;;10.94;100.00;101043.50;5027348;28;20033;-89
2021/10/16 08:18:03;;;;;;;17.00;7.43;;;;;;;11.23;100.00;101071.69;4996039;28;20598;-87
2021/10/16 08:20:52;;;;;;;22.38;8.95;;;;;;;11.18;100.00;101042.59;5025411;28;20136;-89
2021/10/16 08:23:20;;;;;;;19.13;6.82;;;;;;;11.43;100.00;101064.91;5018516;28;20163;-87
2021/10/16 08:25:46;;;;;;;15.70;7.72;;;;;;;11.53;100.00;101061.16;5017683;28;20049;-90
2021/10/16 08:28:14;;;;;;;18.80;7.78;;;;;;;11.59;100.00;101060.44;4994891;28;20479;-88
2021/10/16 08:30:51;;;;;;;11.77;6.30;;;;;;;11.54;100.00;101041.31;5021527;28;20052;-90
2021/10/16 08:33:18;;;;;;;14.35;6.53;;;;;;;11.72;100.00;101059.88;5022545;28;20041;-88
2021/10/16 08:35:43;;;;;;;16.98;6.35;;;;;;;11.63;100.00;101027.59;5044588;28;20379;-90
2021/10/16 08:38:09;;;;;;;18.05;6.82;;;;;;;11.79;100.00;101044.69;4995401;28;20037;-90
2021/10/16 08:40:37;;;;;;;18.50;7.80;;;;;;;11.90;100.00;101060.50;5009511;28;20080;-89
2021/10/16 08:43:05;;;;;;;12.82;6.72;;;;;;;11.89;100.00;101045.34;5006479;28;20052;-89
2021/10/16 08:45:32;;;;;;;11.27;6.13;;;;;;;11.87;100.00;101032.03;4995834;28;20046;-89
2021/10/16 08:47:58;;;;;;;18.77;6.47;;;;;;;11.97;100.00;101048.00;5006362;28;20580;-88
2021/10/16 08:50:26;;;;;;;17.63;7.22;;;;;;;11.95;100.00;101031.16;4989058;28;20069;-88
2021/10/16 08:52:51;;;;;;;16.05;6.20;;;;;;;12.05;100.00;101033.63;4996878;28;20033;-90
2021/10/16 08:55:17;;;;;;;14.68;6.57;;;;;;;12.22;100.00;101047.81;5011863;28;20048;-88
2021/10/16 08:57:43;;;;;;;13.10;5.75;;;;;;;12.25;100.00;101034.84;5011181;28;20436;-89
2021/10/16 09:00:49;;;;;;;17.15;5.57;;;;;;;12.43;100.00;101037.22;4998896;28;20064;-86
2021/10/16 09:03:16;;;;;;;11.63;5.97;;;;;;;12.48;100.00;101026.72;4997391;28;20119;-88
2021/10/16 09:05:41;;;;;;;12.57;5.47;;;;;;;12.56;100.00;101014.19;5024290;28;20026;-89
2021/10/16 09:08:29;;;;;;;14.27;5.20;;;;;;;12.64;100.00;101012.25;5026624;28;20074;-90
2021/10/16 09:11:35;;;;;;;8.60;5.28;;;;;;;12.84;100.00;101025.22;5033455;28;20037;-87
2021/10/16 09:14:21;;;;;;;15.43;5.13;;;;;;;12.86;100.00;101015.06;5033050;28;20037;-90
2021/10/16 09:16:50;;;;;;;13.63;6.75;;;;;;;12.73;100.00;100999.53;5010186;28;20044;-87
2021/10/16 09:19:17;;;;;;;16.33;7.95;;;;;;;12.91;100.00;101018.91;4999585;28;20064;-87
2021/10/16 09:22:07;;;;;;;13.50;7.10;;;;;;;13.00;100.00;101021.53;4994755;28;20037;-90
2021/10/16 09:24:34;;;;;;;14.05;6.00;;;;;;;13.06;99.96;101005.41;5025471;28;20096;-87
2021/10/16 09:27:26;;;;;;;8.65;4.63;;;;;;;13.18;99.70;101014.72;5029601;28;20589;-87
2021/10/16 09:30:08;;;;;;;12.73;4.85;;;;;;;13.07;99.51;100988.19;5009382;28;20466;-86
2021/10/16 09:32:34;;;;;;;13.05;5.85;;;;;;;13.15;99.73;101015.09;5012951;28;20048;-88
2021/10/16 09:35:09;;;;;;;12.88;5.55;;;;;;;13.08;100.00;101003.38;5010592;28;20460;-88
2021/10/16 09:37:55;;;;;;;12.52;5.25;;;;;;;13.16;100.00;101011.38;5032352;28;20037;-89
2021/10/16 09:40:37;;;;;;;6.10;4.07;;;;;;;13.18;100.00;101003.94;5008466;28;20042;-91
2021/10/16 09:43:29;;;;;;;10.40;4.75;;;;;;;13.20;100.00;100993.78;5040865;28;20029;-94
2021/10/16 09:46:15;;;;;;;11.35;3.80;;;;;;;13.22;99.53;100977.38;5019129;28;20041;-93
2021/10/16 09:48:41;;;;;;;9.35;5.20;;;;;;;13.45;99.44;100990.78;5009560;28;20101;-91
2021/10/16 09:51:07;;;;;;;14.98;5.30;;;;;;;13.42;99.47;100966.88;5004305;28;20127;-94
2021/10/16 09:53:33;;;;;;;16.27;6.10;;;;;;;13.51;98.70;100963.00;5005094;28;20084;-92
2021/10/16 09:56:04;;;;;;;17.40;7.38;;;;;;;13.75;98.24;100986.16;5011984;28;20033;-92
2021/10/16 09:58:32;;;;;;;10.57;5.53;;;;;;;13.83;97.46;100974.38;5020937;28;20041;-93
2021/10/16 10:01:03;;;;;;;11.10;4.97;;;;;;;14.04;97.07;100987.91;5021353;28;20279;-92
2021/10/16 10:03:32;;;;;;;13.57;5.75;;;;;;;14.07;96.31;100960.47;5021126;28;20041;-91
2021/10/16 10:05:58;;;;;;;7.25;4.28;;;;;;;14.32;95.56;100980.91;5028347;28;20027;-96
2021/10/16 10:08:24;;;;;;;14.07;5.43;;;;;;;14.37;95.25;100970.28;5025530;28;20097;-91
2021/10/16 10:10:50;;;;;;;9.60;4.30;;;;;;;14.49;94.86;100966.88;5020193;28;20044;-92
2021/10/16 10:13:16;;;;;;;15.55;7.60;;;;;;;14.68;94.48;100987.00;5018531;28;20033;-93
2021/10/16 10:15:42;;;;;;;19.88;8.93;;;;;;;14.54;93.61;100958.19;4999160;28;20113;-90
2021/10/16 10:20:56;;;;;;;11.35;5.75;;;;;;;14.79;93.15;100985.66;5019118;28;20038;-93
2021/10/16 10:23:23;;;;;;;21.50;12.50;;;;;;;14.77;92.89;100963.34;5015343;28;20478;-94
2021/10/16 10:25:49;;;;;;;20.60;11.50;;;;;;;15.06;92.30;100980.41;5014763;28;20437;-91
2021/10/16 10:28:15;;;;;;;9.82;5.45;;;;;;;15.14;91.24;100964.00;5023502;28;20026;-92
2021/10/16 10:30:42;;;;;;;13.40;7.93;;;;;;;15.13;90.12;100954.16;5000831;28;20029;-92
2021/10/16 10:33:19;;;;;;;17.38;6.03;;;;;;;15.36;89.27;100976.38;4997807;28;20056;-89
2021/10/16 10:35:57;;;;;;;10.63;5.53;;;;;;;15.35;89.27;100982.84;5013763;28;20083;-92
2021/10/16 10:38:28;;;;;;;12.75;7.47;;;;;;;15.41;89.14;100972.22;5015465;28;20114;-91
2021/10/16 10:40:54;;;;;;;12.18;5.05;;;;;;;15.36;88.40;100962.81;5015968;28;20045;-93
2021/10/16 10:43:40;;;;;;;9.52;4.60;;;;;;;15.37;88.32;100961.81;5000498;28;20064;-93
2021/10/16 10:46:13;;;;;;;8.15;6.95;;;;;;;15.37;88.24;100956.38;5002487;28;20049;-93
2021/10/16 10:48:46;;;;;;;13.35;5.22;;;;;;;15.58;87.65;100981.66;4991502;28;20029;-87
2021/10/16 10:51:36;;;;;;;8.02;4.55;;;;;;;15.55;87.56;100968.53;4992727;28;20046;-89
2021/10/16 10:54:22;;;;;;;14.00;4.72;;;;;;;15.51;87.48;100970.81;5001889;28;20045;-87
2021/10/16 10:56:55;;;;;;;10.18;4.53;;;;;;;15.45;86.68;100965.34;5012200;28;20041;-90
2021/10/16 10:59:21;;;;;;;10.50;4.55;;;;;;;15.51;86.00;100969.97;4997370;28;20052;-88
2021/10/16 11:01:51;;;;;;;9.60;4.07;;;;;;;15.52;85.60;100969.75;5027449;28;20431;-88
2021/10/16 11:04:47;;;;;;;9.77;4.60;;;;;;;15.45;84.47;100968.06;4997206;28;20163;-86
2021/10/16 11:07:34;;;;;;;6.40;3.65;;;;;;;15.48;84.67;100963.09;5009768;28;20037;-87
2021/10/16 11:10:56;;;;;;;9.82;3.88;;;;;;;15.35;83.56;100946.78;5014413;28;20569;-89
2021/10/16 11:13:40;;;;;;;6.18;3.53;;;;;;;15.48;81.91;100945.97;4973953;28;20484;-87
2021/10/16 11:16:06;;;;;;;8.38;3.88;;;;;;;15.52;81.62;100942.66;4993948;28;20033;-86
2021/10/16 11:18:33;;;;;;;7.13;3.55;;;;;;;15.62;80.95;100945.00;4998176;28;20048;-86
2021/10/16 11:21:10;;;;;;;9.43;4.40;;;;;;;15.80;78.92;100947.16;4997692;28;20026;-89
2021/10/16 11:23:40;;;;;;;9.93;3.38;;;;;;;15.89;78.10;100932.34;5006210;28;20025;-90
2021/10/16 11:26:10;;;;;;;6.65;3.70;;;;;;;15.89;77.15;100937.78;4998326;28;20040;-88
2021/10/16 11:28:38;;;;;;;10.07;4.90;;;;;;;15.91;75.45;100929.44;5001241;28;20022;-86
2021/10/16 11:31:06;;;;;;;9.23;4.38;;;;;;;16.00;75.11;100922.75;4995466;28;20098;-87